Time;durP1;ratioP1;P1;durP2;ratioP2;P2;SDS_P1;SDS_P2;PMS_P1;PMS_P2;Temp;Humidity;BMP_temperature;BMP_pressure;BME280_temperature;BME280_humidity;BME280_pressure;Samples;Min_cycle;Max_cycle;Signal;HPM_P1;HPM_P2
2023/08/22 00:00:57;;;;;;;5.10;4.60;;;16.30;99.90;;;;;;5045629;28;20602;-57
2023/08/22 00:03:25;;;;;;;4.70;4.30;;;16.30;99.90;;;;;;5038955;28;21042;-57
2023/08/22 00:05:53;;;;;;;5.53;5.00;;;16.30;99.90;;;;;;5043763;28;21097;-57
2023/08/22 00:08:21;;;;;;;5.33;4.93;;;16.30;99.90;;;;;;5048800;28;20490;-57
2023/08/22 00:10:50;;;;;;;5.10;4.60;;;16.30;99.90;;;;;;5048152;28;20462;-57
2023/08/22 00:13:18;;;;;;;5.70;5.10;;;16.30;99.90;;;;;;5049972;28;20572;-57
2023/08/22 00:15:46;;;;;;;5.30;3.90;;;16.30;99.90;;;;;;5033922;28;20491;-57
2023/08/22 00:18:15;;;;;;;5.10;4.70;;;16.30;99.90;;;;;;5032502;28;20470;-57
2023/08/22 00:20:44;;;;;;;5.17;4.20;;;16.30;99.90;;;;;;5031297;28;20514;-57
2023/08/22 00:23:11;;;;;;;6.30;4.27;;;16.30;99.90;;;;;;5028699;28;20568;-57
2023/08/22 00:25:39;;;;;;;4.60;4.10;;;16.40;99.90;;;;;;5020791;28;20859;-57
2023/08/22 00:28:07;;;;;;;4.40;4.00;;;16.50;99.90;;;;;;5017930;28;20479;-56
2023/08/22 00:30:36;;;;;;;4.93;4.00;;;16.50;99.90;;;;;;5023554;28;20479;-57
2023/08/22 00:33:04;;;;;;;4.90;4.40;;;16.60;99.90;;;;;;5022455;28;20499;-57
2023/08/22 00:35:34;;;;;;;4.57;4.17;;;16.60;99.90;;;;;;5019574;28;20978;-57
2023/08/22 00:38:02;;;;;;;4.77;4.03;;;16.60;99.90;;;;;;5017733;28;20477;-57
2023/08/22 00:40:29;;;;;;;5.07;4.47;;;16.60;99.90;;;;;;5021941;28;20487;-57
2023/08/22 00:42:58;;;;;;;5.83;4.30;;;16.70;99.90;;;;;;5019430;28;20595;-57
2023/08/22 00:45:26;;;;;;;5.37;4.00;;;16.70;99.90;;;;;;5021731;28;20514;-57
2023/08/22 00:47:55;;;;;;;6.40;4.03;;;16.80;99.90;;;;;;5019857;28;20470;-56
2023/08/22 00:50:23;;;;;;;9.27;4.30;;;16.80;99.90;;;;;;5021735;28;20648;-57
2023/08/22 00:52:52;;;;;;;4.97;3.90;;;16.80;99.90;;;;;;5030641;28;20491;-57
2023/08/22 00:55:21;;;;;;;4.60;4.07;;;16.80;99.90;;;;;;5027576;28;20510;-57
2023/08/22 00:57:49;;;;;;;6.00;4.07;;;16.90;99.90;;;;;;5030461;28;20555;-57
2023/08/22 01:00:17;;;;;;;4.70;4.20;;;16.90;99.90;;;;;;5028606;28;20529;-57
2023/08/22 01:02:45;;;;;;;4.63;3.83;;;16.90;99.90;;;;;;5027332;28;20542;-57
2023/08/22 01:05:15;;;;;;;5.00;3.97;;;16.90;99.90;;;;;;5027235;28;20586;-57
2023/08/22 01:07:50;;;;;;;5.90;4.37;;;16.90;99.90;;;;;;5030728;28;20546;-56
2023/08/22 01:10:25;;;;;;;5.00;4.00;;;16.90;99.90;;;;;;5032673;28;20462;-57
2023/08/22 01:12:58;;;;;;;5.20;3.70;;;17.00;99.90;;;;;;5029253;28;20577;-56
2023/08/22 01:15:28;;;;;;;4.50;3.80;;;17.00;99.90;;;;;;5025054;28;20506;-58
2023/08/22 01:17:58;;;;;;;8.70;3.83;;;17.00;99.90;;;;;;5030123;28;20771;-58
2023/08/22 01:20:26;;;;;;;5.50;4.03;;;17.00;99.90;;;;;;5026536;28;20491;-58
2023/08/22 01:22:56;;;;;;;3.93;3.43;;;17.10;99.90;;;;;;5023404;28;20489;-56
2023/08/22 01:25:25;;;;;;;4.53;3.53;;;17.10;99.90;;;;;;5015621;28;20606;-57
2023/08/22 01:28:04;;;;;;;4.77;4.13;;;17.10;99.90;;;;;;5020209;28;20908;-57
2023/08/22 01:30:36;;;;;;;5.93;3.63;;;17.10;99.90;;;;;;5013941;28;20499;-57
2023/08/22 01:33:13;;;;;;;3.93;3.63;;;17.00;99.90;;;;;;5017703;28;20602;-57
2023/08/22 01:35:47;;;;;;;4.53;3.70;;;16.90;99.90;;;;;;5021677;28;20483;-57
2023/08/22 01:38:24;;;;;;;4.00;3.60;;;16.90;99.90;;;;;;5011450;28;20482;-57
2023/08/22 01:40:53;;;;;;;3.90;3.60;;;16.90;99.90;;;;;;5018041;28;20491;-57
2023/08/22 01:43:21;;;;;;;6.03;3.60;;;16.90;99.90;;;;;;5028328;28;20487;-57
2023/08/22 01:45:50;;;;;;;5.40;4.23;;;16.90;99.90;;;;;;5014242;28;20868;-57
2023/08/22 01:48:18;;;;;;;5.53;3.67;;;16.90;99.90;;;;;;5014774;28;20504;-56
2023/08/22 01:50:46;;;;;;;4.00;3.70;;;16.90;99.90;;;;;;5023366;28;20674;-57
2023/08/22 01:53:14;;;;;;;3.67;3.37;;;16.80;99.90;;;;;;5027330;28;20793;-58
2023/08/22 01:55:43;;;;;;;5.70;4.03;;;16.90;99.90;;;;;;5024686;28;21065;-57
2023/08/22 01:58:14;;;;;;;6.83;3.90;;;16.80;99.90;;;;;;5022847;28;20561;-57
2023/08/22 02:00:42;;;;;;;5.43;3.70;;;16.80;99.90;;;;;;5024740;28;21073;-58
2023/08/22 02:03:10;;;;;;;4.40;4.00;;;16.90;99.90;;;;;;5026925;28;20881;-57
2023/08/22 02:05:38;;;;;;;4.17;3.77;;;16.90;99.90;;;;;;5024758;28;21855;-57
2023/08/22 02:08:06;;;;;;;4.67;3.70;;;16.90;99.90;;;;;;5029388;28;20479;-57
2023/08/22 02:10:34;;;;;;;5.47;3.63;;;16.90;99.90;;;;;;5029581;28;20487;-57
2023/08/22 02:13:04;;;;;;;4.20;3.80;;;16.90;99.90;;;;;;5032389;28;20498;-56
2023/08/22 02:15:32;;;;;;;7.90;3.90;;;16.90;99.90;;;;;;5032637;28;20511;-57
2023/08/22 02:18:00;;;;;;;4.00;3.60;;;16.90;99.90;;;;;;5029461;28;20467;-57
2023/08/22 02:20:28;;;;;;;3.93;3.47;;;17.00;99.90;;;;;;5030620;28;20859;-57
2023/08/22 02:22:56;;;;;;;4.03;3.70;;;17.00;99.90;;;;;;5019092;28;20593;-56
2023/08/22 02:25:24;;;;;;;3.80;3.30;;;17.00;99.90;;;;;;5018165;28;20488;-57
2023/08/22 02:27:52;;;;;;;3.70;3.30;;;17.10;99.90;;;;;;5014272;28;20498;-57
2023/08/22 02:30:22;;;;;;;3.77;3.47;;;17.10;99.90;;;;;;5015276;28;20493;-57
2023/08/22 02:32:50;;;;;;;4.80;3.40;;;17.10;99.90;;;;;;5021638;28;20608;-57
2023/08/22 02:35:21;;;;;;;4.30;3.50;;;17.10;99.90;;;;;;5015521;28;21036;-57
2023/08/22 02:37:51;;;;;;;5.20;3.50;;;17.10;99.90;;;;;;5023997;28;20467;-58
2023/08/22 02:40:19;;;;;;;3.70;3.40;;;17.10;99.90;;;;;;5022568;28;20497;-57
2023/08/22 02:42:47;;;;;;;3.50;3.20;;;17.10;99.90;;;;;;5022645;28;20471;-56
2023/08/22 02:45:15;;;;;;;3.23;3.00;;;17.20;99.90;;;;;;5018086;28;20495;-57
2023/08/22 02:47:44;;;;;;;6.83;3.43;;;17.20;99.90;;;;;;5021240;28;20489;-56
2023/08/22 02:50:13;;;;;;;3.60;3.30;;;17.20;99.90;;;;;;5023332;28;20468;-57
2023/08/22 02:52:41;;;;;;;3.73;3.27;;;17.20;99.90;;;;;;5026946;28;20560;-57
2023/08/22 02:55:09;;;;;;;5.47;3.47;;;17.20;99.90;;;;;;5020586;28;20586;-57
2023/08/22 02:57:37;;;;;;;3.50;3.20;;;17.20;99.90;;;;;;5023885;28;20502;-56
2023/08/22 03:00:08;;;;;;;3.40;3.10;;;17.20;99.90;;;;;;5025124;28;20467;-57
2023/08/22 03:02:36;;;;;;;3.90;3.00;;;17.20;99.90;;;;;;5034498;28;20972;-57
2023/08/22 03:05:09;;;;;;;3.40;3.10;;;17.20;99.90;;;;;;5027257;28;20495;-56
2023/08/22 03:07:37;;;;;;;3.93;3.50;;;17.20;99.90;;;;;;5032440;28;20470;-56
2023/08/22 03:10:07;;;;;;;3.10;2.83;;;17.20;99.90;;;;;;5034007;28;20467;-58
2023/08/22 03:12:35;;;;;;;3.93;3.50;;;17.30;99.90;;;;;;5026193;28;20467;-56
2023/08/22 03:15:04;;;;;;;3.80;3.43;;;17.30;99.90;;;;;;5028934;28;20490;-57
2023/08/22 03:17:32;;;;;;;3.00;2.70;;;17.30;99.90;;;;;;5029207;28;20876;-58
2023/08/22 03:20:00;;;;;;;3.90;3.30;;;17.30;99.90;;;;;;5026616;28;20897;-58
2023/08/22 03:22:29;;;;;;;2.83;2.63;;;17.30;99.90;;;;;;5026964;28;20497;-58
2023/08/22 03:24:57;;;;;;;3.10;2.90;;;17.30;99.90;;;;;;5030820;28;20477;-58
2023/08/22 03:27:25;;;;;;;4.50;3.30;;;17.30;99.90;;;;;;5033620;28;20489;-58
2023/08/22 03:29:53;;;;;;;4.93;3.40;;;17.30;99.90;;;;;;5028189;28;20843;-58
2023/08/22 03:32:21;;;;;;;4.00;2.90;;;17.30;99.90;;;;;;5024142;28;20566;-57
2023/08/22 03:34:49;;;;;;;4.10;3.20;;;17.30;99.90;;;;;;5026770;28;21052;-58
2023/08/22 03:37:17;;;;;;;3.97;3.40;;;17.30;99.90;;;;;;5024907;28;20566;-57
2023/08/22 03:39:47;;;;;;;3.70;3.27;;;17.30;99.90;;;;;;5026166;28;20529;-57
2023/08/22 03:42:15;;;;;;;4.20;2.97;;;17.30;99.90;;;;;;5018410;28;20491;-58
2023/08/22 03:44:43;;;;;;;4.37;3.33;;;17.30;99.90;;;;;;5012929;28;20498;-58
2023/08/22 03:47:11;;;;;;;3.77;3.33;;;17.30;99.90;;;;;;5015058;28;20466;-57
2023/08/22 03:49:39;;;;;;;3.77;3.03;;;17.30;99.90;;;;;;5021529;28;20494;-57
2023/08/22 03:52:07;;;;;;;3.93;3.63;;;17.30;99.90;;;;;;5026580;28;20610;-57
2023/08/22 03:54:35;;;;;;;3.50;3.20;;;17.30;99.90;;;;;;5028465;28;20609;-57
2023/08/22 03:57:04;;;;;;;3.90;3.60;;;17.30;99.90;;;;;;5026782;28;20868;-58
2023/08/22 03:59:32;;;;;;;4.30;3.33;;;17.30;99.90;;;;;;5026021;28;21221;-58
2023/08/22 04:02:00;;;;;;;4.27;3.67;;;17.30;99.90;;;;;;5026531;28;20555;-58
2023/08/22 04:04:29;;;;;;;4.00;3.60;;;17.30;99.90;;;;;;5025740;28;20501;-57
2023/08/22 04:06:58;;;;;;;4.63;4.10;;;17.30;99.90;;;;;;5026599;28;20883;-57
2023/08/22 04:09:26;;;;;;;4.77;3.87;;;17.30;99.90;;;;;;5020162;28;20545;-57
2023/08/22 04:11:54;;;;;;;4.60;3.60;;;17.30;99.90;;;;;;5029563;28;20463;-57
2023/08/22 04:14:24;;;;;;;5.97;4.33;;;17.30;99.90;;;;;;5017021;28;20487;-57
2023/08/22 04:16:51;;;;;;;4.43;3.90;;;17.30;99.90;;;;;;5017769;28;20509;-58
2023/08/22 04:19:20;;;;;;;4.90;3.40;;;17.30;99.90;;;;;;5024110;28;20482;-57
2023/08/22 04:21:48;;;;;;;5.47;3.80;;;17.30;99.90;;;;;;5033967;28;20487;-58
2023/08/22 04:24:16;;;;;;;4.63;3.73;;;17.30;99.90;;;;;;5018762;28;20738;-58
2023/08/22 04:26:44;;;;;;;6.23;4.10;;;17.30;99.90;;;;;;5021932;28;21014;-58
2023/08/22 04:29:13;;;;;;;5.83;4.07;;;17.40;99.90;;;;;;5031275;28;20853;-57
2023/08/22 04:31:43;;;;;;;3.67;3.37;;;17.40;99.90;;;;;;5021567;28;20876;-57
2023/08/22 04:34:11;;;;;;;3.90;3.60;;;17.40;99.90;;;;;;5026737;28;20482;-58
2023/08/22 04:36:39;;;;;;;5.87;3.80;;;17.40;99.90;;;;;;5019205;28;20514;-58
2023/08/22 04:39:07;;;;;;;4.40;3.57;;;17.40;99.90;;;;;;5021382;28;20598;-56
2023/08/22 04:41:35;;;;;;;5.10;3.63;;;17.40;99.90;;;;;;5030754;28;20531;-58
2023/08/22 04:44:04;;;;;;;8.53;4.47;;;17.40;99.90;;;;;;5026819;28;20497;-58
2023/08/22 04:46:31;;;;;;;4.70;3.80;;;17.30;99.90;;;;;;5013499;28;20491;-57
2023/08/22 04:49:01;;;;;;;5.43;3.90;;;17.30;99.90;;;;;;5023496;28;21005;-58
2023/08/22 04:51:29;;;;;;;4.40;3.63;;;17.30;99.90;;;;;;5025973;28;20495;-58
2023/08/22 04:53:57;;;;;;;4.13;3.73;;;17.30;99.90;;;;;;5021996;28;20486;-58
2023/08/22 04:56:25;;;;;;;6.20;3.50;;;17.30;99.90;;;;;;5021095;28;20491;-58
2023/08/22 04:58:53;;;;;;;4.17;3.33;;;17.30;99.90;;;;;;5025233;28;20554;-58
2023/08/22 05:01:21;;;;;;;4.53;3.50;;;17.30;99.90;;;;;;5031118;28;20472;-56
2023/08/22 05:03:49;;;;;;;3.73;3.37;;;17.30;99.90;;;;;;5026239;28;20487;-58
2023/08/22 05:06:18;;;;;;;4.03;3.63;;;17.30;99.90;;;;;;5024688;28;21080;-57
2023/08/22 05:08:46;;;;;;;5.53;3.40;;;17.30;99.90;;;;;;5024329;28;20525;-57
2023/08/22 05:11:14;;;;;;;3.80;3.50;;;17.30;99.90;;;;;;5026659;28;20566;-57
2023/08/22 05:13:42;;;;;;;4.53;3.70;;;17.30;99.90;;;;;;5023448;28;20486;-57
2023/08/22 05:16:10;;;;;;;3.97;3.50;;;17.30;99.90;;;;;;5017356;28;20549;-58
2023/08/22 05:18:38;;;;;;;3.77;3.37;;;17.40;99.90;;;;;;5025817;28;21038;-59
2023/08/22 05:21:07;;;;;;;6.13;3.73;;;17.40;99.90;;;;;;5022173;28;20482;-58
2023/08/22 05:23:36;;;;;;;5.27;3.43;;;17.40;99.90;;;;;;5021520;28;20508;-57
2023/08/22 05:26:04;;;;;;;14.00;4.17;;;17.40;99.90;;;;;;5011061;28;20497;-58
2023/08/22 05:28:32;;;;;;;4.50;3.77;;;17.40;99.90;;;;;;5015640;28;20486;-58
2023/08/22 05:31:00;;;;;;;4.57;3.63;;;17.40;99.90;;;;;;5013792;28;20522;-58
2023/08/22 05:33:28;;;;;;;5.27;3.90;;;17.40;99.90;;;;;;5013886;28;20854;-57
2023/08/22 05:35:56;;;;;;;4.03;3.63;;;17.40;99.90;;;;;;5017836;28;20573;-57
2023/08/22 05:38:24;;;;;;;5.00;3.83;;;17.40;99.90;;;;;;5020876;28;20848;-57
2023/08/22 05:40:54;;;;;;;6.30;4.20;;;17.40;99.90;;;;;;5026786;28;20529;-57
2023/08/22 05:43:22;;;;;;;4.67;3.90;;;17.40;99.90;;;;;;5027694;28;20491;-58
2023/08/22 05:45:50;;;;;;;7.37;3.97;;;17.40;99.90;;;;;;5025997;28;20585;-57
2023/08/22 05:48:18;;;;;;;3.80;3.50;;;17.40;99.90;;;;;;5025681;28;20470;-58
2023/08/22 05:50:45;;;;;;;6.80;3.93;;;17.40;99.90;;;;;;5029769;28;20499;-57
2023/08/22 05:53:13;;;;;;;4.30;3.90;;;17.50;99.90;;;;;;5029249;28;21025;-57
2023/08/22 05:55:41;;;;;;;5.90;3.80;;;17.50;99.90;;;;;;5012758;28;20495;-57
2023/08/22 05:58:10;;;;;;;5.20;4.03;;;17.50;99.90;;;;;;5010914;28;20618;-58
2023/08/22 06:00:38;;;;;;;6.77;4.00;;;17.60;99.90;;;;;;5010484;28;20467;-58
2023/08/22 06:03:06;;;;;;;4.67;4.27;;;17.60;99.90;;;;;;5008623;28;20602;-57
2023/08/22 06:05:35;;;;;;;5.90;3.60;;;17.60;99.90;;;;;;5018045;28;20483;-57
2023/08/22 06:08:03;;;;;;;5.80;4.60;;;17.60;99.90;;;;;;5030040;28;20475;-58
2023/08/22 06:10:31;;;;;;;4.60;3.80;;;17.60;99.90;;;;;;5023787;28;21017;-58
2023/08/22 06:12:59;;;;;;;4.33;3.93;;;17.70;99.90;;;;;;5016674;28;21089;-58
2023/08/22 06:15:28;;;;;;;4.20;3.80;;;17.70;99.90;;;;;;5018357;28;20573;-58
2023/08/22 06:17:56;;;;;;;8.80;4.50;;;17.80;99.90;;;;;;5025360;28;20470;-58
2023/08/22 06:20:24;;;;;;;7.07;4.63;;;17.80;99.90;;;;;;5026141;28;20502;-58
2023/08/22 06:22:52;;;;;;;7.97;4.60;;;17.70;99.90;;;;;;5024289;28;20584;-56
2023/08/22 06:25:20;;;;;;;5.97;4.00;;;17.70;99.90;;;;;;5019860;28;20491;-58
2023/08/22 06:27:48;;;;;;;9.17;4.47;;;17.80;99.90;;;;;;5033015;28;20849;-58
2023/08/22 06:30:16;;;;;;;8.03;4.70;;;17.80;99.90;;;;;;5027088;28;20579;-57
2023/08/22 06:32:46;;;;;;;5.80;4.83;;;17.80;99.90;;;;;;5014245;28;20961;-58
2023/08/22 06:35:14;;;;;;;6.93;4.10;;;17.90;99.90;;;;;;5001783;28;20485;-57
2023/08/22 06:37:42;;;;;;;5.00;3.90;;;18.00;99.90;;;;;;5010920;28;20474;-57
2023/08/22 06:40:11;;;;;;;3.83;3.40;;;18.00;99.90;;;;;;5028395;28;21110;-57
2023/08/22 06:42:39;;;;;;;4.03;3.50;;;18.20;99.90;;;;;;5025471;28;20585;-56
2023/08/22 06:45:07;;;;;;;7.80;3.83;;;18.30;99.90;;;;;;5024748;28;20939;-57
2023/08/22 06:47:35;;;;;;;3.60;3.30;;;18.40;99.90;;;;;;5023609;28;20602;-57
2023/08/22 06:50:07;;;;;;;5.50;3.53;;;18.50;99.90;;;;;;5022090;28;20478;-57
2023/08/22 06:52:35;;;;;;;6.73;3.30;;;18.60;99.90;;;;;;5025916;28;22954;-58
2023/08/22 06:55:03;;;;;;;5.10;3.27;;;18.70;99.90;;;;;;5026706;28;20578;-58
2023/08/22 06:57:31;;;;;;;3.57;3.27;;;18.80;99.90;;;;;;5030512;28;20521;-58
2023/08/22 07:00:13;;;;;;;3.70;3.00;;;18.90;99.90;;;;;;5034701;28;20477;-58
2023/08/22 07:02:41;;;;;;;4.00;2.83;;;19.00;99.90;;;;;;5023882;28;20466;-58
2023/08/22 07:05:12;;;;;;;4.20;3.13;;;19.10;99.90;;;;;;5025264;28;20482;-58
2023/08/22 07:07:40;;;;;;;3.30;3.00;;;19.10;99.90;;;;;;5033080;28;20928;-58
2023/08/22 07:10:11;;;;;;;4.53;3.30;;;19.20;99.90;;;;;;5032846;28;20504;-58
2023/08/22 07:12:41;;;;;;;6.33;3.00;;;19.30;99.90;;;;;;5034598;28;20581;-58
2023/08/22 07:15:10;;;;;;;3.87;2.70;;;19.30;99.90;;;;;;5029259;28;20489;-58
2023/08/22 07:17:38;;;;;;;5.00;2.77;;;19.40;99.90;;;;;;5029648;28;20470;-57
2023/08/22 07:20:13;;;;;;;3.63;2.60;;;19.40;99.90;;;;;;5029264;28;20571;-57
2023/08/22 07:22:41;;;;;;;7.83;3.17;;;19.50;99.90;;;;;;5028828;28;20560;-56
2023/08/22 07:25:10;;;;;;;3.70;2.63;;;19.60;99.90;;;;;;5025573;28;20552;-58
2023/08/22 07:27:38;;;;;;;3.33;2.70;;;19.70;99.90;;;;;;5030129;28;20471;-58
2023/08/22 07:30:08;;;;;;;3.00;2.40;;;19.70;99.90;;;;;;5030965;28;20467;-57
2023/08/22 07:32:36;;;;;;;4.50;2.57;;;19.80;99.90;;;;;;5025283;28;20969;-58
2023/08/22 07:35:05;;;;;;;2.70;2.37;;;19.90;99.90;;;;;;5017100;28;20890;-58
2023/08/22 07:37:35;;;;;;;2.63;2.43;;;19.90;99.90;;;;;;5027215;28;20478;-58
2023/08/22 07:40:05;;;;;;;2.90;2.57;;;19.90;99.90;;;;;;5017967;28;20573;-58
2023/08/22 07:42:35;;;;;;;3.43;2.57;;;20.00;99.90;;;;;;5017336;28;20478;-57
2023/08/22 07:45:05;;;;;;;2.70;2.50;;;20.10;99.90;;;;;;5020608;28;20587;-58
2023/08/22 07:47:33;;;;;;;4.00;2.67;;;20.20;99.90;;;;;;5007324;28;21391;-58
2023/08/22 07:50:01;;;;;;;3.30;2.50;;;20.30;99.90;;;;;;5011519;28;20480;-58
2023/08/22 07:52:29;;;;;;;5.47;2.67;;;20.40;99.90;;;;;;5012932;28;20486;-58
2023/08/22 07:54:58;;;;;;;5.83;3.10;;;20.40;99.90;;;;;;5020137;28;20487;-58
2023/08/22 07:57:26;;;;;;;6.70;2.90;;;20.50;99.90;;;;;;5030771;28;21547;-58
2023/08/22 07:59:55;;;;;;;5.27;2.40;;;20.60;99.90;;;;;;5021835;28;20545;-58
2023/08/22 08:02:23;;;;;;;3.50;2.90;;;20.70;99.90;;;;;;5028274;28;20877;-58
2023/08/22 08:04:51;;;;;;;3.90;2.93;;;20.70;99.90;;;;;;5028298;28;20558;-57
2023/08/22 08:07:19;;;;;;;2.80;2.50;;;20.70;99.90;;;;;;5020135;28;20557;-58
2023/08/22 08:09:47;;;;;;;3.13;2.60;;;20.70;99.90;;;;;;5016886;28;20587;-58
2023/08/22 08:12:16;;;;;;;2.67;2.43;;;20.70;99.90;;;;;;5018407;28;20567;-58
2023/08/22 08:14:44;;;;;;;4.97;2.53;;;20.80;99.90;;;;;;5014945;28;20571;-58
2023/08/22 08:17:12;;;;;;;3.60;2.87;;;20.80;99.90;;;;;;5018679;28;20475;-57
2023/08/22 08:19:40;;;;;;;6.80;3.00;;;21.00;99.90;;;;;;5015162;28;20499;-57
2023/08/22 08:22:08;;;;;;;5.30;2.40;;;21.10;99.90;;;;;;5015376;28;20481;-57
2023/08/22 08:24:36;;;;;;;5.53;3.03;;;21.10;99.90;;;;;;5025876;28;20499;-58
2023/08/22 08:27:05;;;;;;;3.73;2.63;;;21.20;99.90;;;;;;5014568;28;20474;-58
2023/08/22 08:29:34;;;;;;;2.30;2.17;;;21.20;99.90;;;;;;5014879;28;20653;-58
2023/08/22 08:32:03;;;;;;;4.20;2.50;;;21.30;99.90;;;;;;5007108;28;20558;-58
2023/08/22 08:34:31;;;;;;;3.30;2.83;;;21.50;99.90;;;;;;5008392;28;20574;-57
2023/08/22 08:36:59;;;;;;;2.93;2.73;;;21.50;99.90;;;;;;5016379;28;20840;-57
2023/08/22 08:39:28;;;;;;;4.60;2.43;;;21.50;99.90;;;;;;5014907;28;20471;-58
2023/08/22 08:42:03;;;;;;;3.73;2.67;;;21.60;99.90;;;;;;5014290;28;20475;-58
2023/08/22 08:44:35;;;;;;;4.93;2.50;;;21.60;99.90;;;;;;5026714;28;20538;-57
2023/08/22 08:47:04;;;;;;;4.73;2.80;;;21.70;99.90;;;;;;5017126;28;20556;-58
2023/08/22 08:49:33;;;;;;;4.27;2.73;;;21.80;99.90;;;;;;5015402;28;20477;-57
2023/08/22 08:52:05;;;;;;;4.23;2.93;;;22.00;99.90;;;;;;5023379;28;20808;-58
2023/08/22 08:54:34;;;;;;;4.60;2.50;;;22.10;99.90;;;;;;5025755;28;22234;-57
2023/08/22 08:57:02;;;;;;;5.97;2.77;;;22.20;99.90;;;;;;5027176;28;20476;-58
2023/08/22 08:59:30;;;;;;;3.70;2.70;;;22.30;99.90;;;;;;5022600;28;20480;-58
2023/08/22 09:02:00;;;;;;;4.33;2.30;;;22.30;99.90;;;;;;5018184;28;20527;-58
2023/08/22 09:04:28;;;;;;;5.10;2.50;;;22.30;99.90;;;;;;5015029;28;20502;-58
2023/08/22 09:06:56;;;;;;;2.40;2.20;;;22.30;99.90;;;;;;5024456;28;20531;-58
2023/08/22 09:09:24;;;;;;;2.40;2.20;;;22.40;99.90;;;;;;5024428;28;20483;-57
2023/08/22 09:11:53;;;;;;;3.30;2.53;;;22.50;99.90;;;;;;5027534;28;20469;-58
2023/08/22 09:14:21;;;;;;;4.47;2.50;;;22.50;99.90;;;;;;5027086;28;20483;-58
2023/08/22 09:16:50;;;;;;;2.90;2.20;;;22.60;99.90;;;;;;5022477;28;20479;-58
2023/08/22 09:19:19;;;;;;;2.47;2.20;;;22.80;99.90;;;;;;5025646;28;20466;-58
2023/08/22 09:21:57;;;;;;;3.13;2.27;;;22.80;99.90;;;;;;5021984;28;20578;-58
2023/08/22 09:24:26;;;;;;;2.77;2.50;;;23.00;99.90;;;;;;5030878;28;21008;-57
2023/08/22 09:26:55;;;;;;;2.43;2.23;;;23.10;99.90;;;;;;5028442;28;20483;-58
2023/08/22 09:29:28;;;;;;;3.70;2.43;;;23.10;99.90;;;;;;5030951;28;20518;-58
2023/08/22 09:32:04;;;;;;;2.27;2.10;;;23.00;99.90;;;;;;5016169;28;20511;-58
2023/08/22 09:34:35;;;;;;;3.80;2.73;;;23.00;99.90;;;;;;5023339;28;20570;-57
2023/08/22 09:37:03;;;;;;;2.20;1.97;;;23.00;99.90;;;;;;5028078;28;20487;-57
2023/08/22 09:39:33;;;;;;;3.03;2.73;;;22.90;99.90;;;;;;5003990;28;20475;-57
2023/08/22 09:42:01;;;;;;;3.47;2.23;;;23.00;99.90;;;;;;5007834;28;20490;-57
2023/08/22 09:44:30;;;;;;;3.57;2.33;;;23.00;99.90;;;;;;5013033;28;20495;-57
2023/08/22 09:46:58;;;;;;;5.03;2.10;;;23.00;99.90;;;;;;5017700;28;20554;-58
2023/08/22 09:49:28;;;;;;;3.90;2.20;;;23.10;99.90;;;;;;5027022;28;20987;-58
2023/08/22 09:51:58;;;;;;;3.10;2.40;;;23.10;99.90;;;;;;5021822;28;20499;-56
2023/08/22 09:54:27;;;;;;;5.57;2.43;;;23.20;99.90;;;;;;5025822;28;20628;-58
2023/08/22 09:56:57;;;;;;;3.20;2.20;;;23.20;99.90;;;;;;5017568;28;20590;-57
2023/08/22 09:59:27;;;;;;;5.87;2.57;;;23.20;99.90;;;;;;5017604;28;20566;-57
2023/08/22 10:01:57;;;;;;;2.77;2.57;;;23.30;99.90;;;;;;5020314;28;20601;-58
2023/08/22 10:04:25;;;;;;;4.10;2.10;;;23.30;99.90;;;;;;5019170;28;20499;-58
2023/08/22 10:06:54;;;;;;;2.50;2.30;;;23.40;99.90;;;;;;5016166;28;20812;-58
2023/08/22 10:09:24;;;;;;;3.97;2.53;;;23.40;99.90;;;;;;5020345;28;20502;-58
2023/08/22 10:11:56;;;;;;;3.70;2.27;;;23.50;99.90;;;;;;5008050;28;20549;-58
2023/08/22 10:14:28;;;;;;;4.80;2.73;;;23.50;99.90;;;;;;5013269;28;20987;-58
2023/08/22 10:16:56;;;;;;;3.10;2.80;;;23.50;99.90;;;;;;5030498;28;20577;-59
2023/08/22 10:19:26;;;;;;;3.83;2.97;;;23.40;99.90;;;;;;5044564;28;20546;-58
2023/08/22 10:21:54;;;;;;;3.20;2.60;;;23.40;99.90;;;;;;5037916;28;20990;-58
2023/08/22 10:24:30;;;;;;;2.80;2.57;;;23.40;99.90;;;;;;5036754;28;21086;-59
2023/08/22 10:27:03;;;;;;;6.37;2.70;;;23.50;99.90;;;;;;5045404;28;20489;-59
2023/08/22 10:29:34;;;;;;;3.17;2.73;;;23.50;99.90;;;;;;5041489;28;20575;-58
2023/08/22 10:32:23;;;;;;;2.73;2.50;;;23.60;99.90;;;;;;5046360;28;20488;-58
2023/08/22 10:35:25;;;;;;;2.70;2.30;;;23.80;99.90;;;;;;5044370;28;21009;-58
2023/08/22 10:37:53;;;;;;;4.63;2.70;;;23.80;99.90;;;;;;5045353;28;20655;-58
2023/08/22 10:40:31;;;;;;;2.60;2.40;;;23.90;99.90;;;;;;5040852;28;20865;-58
2023/08/22 10:43:10;;;;;;;4.60;2.60;;;24.00;99.90;;;;;;5047364;28;20834;-58
2023/08/22 10:45:50;;;;;;;2.93;2.30;;;23.90;99.90;;;;;;5040590;28;20581;-57
2023/08/22 10:48:20;;;;;;;3.23;2.60;;;23.90;99.90;;;;;;5045732;28;21201;-58
2023/08/22 10:50:51;;;;;;;5.17;2.80;;;24.00;99.90;;;;;;5042976;28;20576;-58
2023/08/22 10:53:27;;;;;;;2.70;2.50;;;24.00;99.90;;;;;;5043124;28;20567;-59
2023/08/22 10:55:57;;;;;;;5.13;2.70;;;24.10;99.90;;;;;;5038484;28;20484;-57
2023/08/22 10:58:42;;;;;;;4.00;2.57;;;24.20;99.90;;;;;;5041918;28;21122;-58
2023/08/22 11:01:13;;;;;;;3.87;3.00;;;24.30;99.90;;;;;;5046279;28;20531;-58
2023/08/22 11:03:43;;;;;;;2.80;2.50;;;24.40;99.90;;;;;;5039106;28;20501;-58
2023/08/22 11:06:18;;;;;;;2.70;2.30;;;24.40;99.90;;;;;;5042884;28;20581;-57
2023/08/22 11:08:46;;;;;;;3.93;2.87;;;24.50;99.90;;;;;;5047214;28;20557;-58
2023/08/22 11:11:17;;;;;;;4.23;2.73;;;24.60;99.90;;;;;;5052515;28;20498;-58
2023/08/22 11:13:45;;;;;;;3.70;2.93;;;24.60;99.90;;;;;;5055683;28;20574;-59
2023/08/22 11:16:15;;;;;;;4.73;2.90;;;24.70;99.90;;;;;;5042936;28;20584;-58
2023/08/22 11:18:47;;;;;;;3.13;2.40;;;24.70;99.90;;;;;;5048986;28;20561;-58
2023/08/22 11:21:15;;;;;;;3.87;2.60;;;24.80;99.90;;;;;;5050272;28;20871;-58
2023/08/22 11:23:43;;;;;;;4.20;2.73;;;24.90;99.90;;;;;;5048412;28;20594;-58
2023/08/22 11:26:12;;;;;;;3.43;2.60;;;25.00;99.90;;;;;;5049947;28;20478;-59
2023/08/22 11:28:42;;;;;;;4.97;2.57;;;25.10;99.90;;;;;;5055166;28;20973;-58
2023/08/22 11:31:16;;;;;;;2.70;2.50;;;25.20;99.90;;;;;;5055353;28;20465;-57
2023/08/22 11:33:47;;;;;;;4.13;2.87;;;25.20;99.90;;;;;;5050832;28;20490;-59
2023/08/22 11:36:15;;;;;;;2.60;2.40;;;25.20;99.90;;;;;;5050023;28;20990;-58
2023/08/22 11:38:44;;;;;;;3.57;2.70;;;25.20;99.90;;;;;;5054732;28;20648;-59
2023/08/22 11:41:13;;;;;;;5.43;2.63;;;25.30;99.90;;;;;;5054379;28;20560;-58
2023/08/22 11:43:52;;;;;;;4.13;3.07;;;25.40;99.90;;;;;;5054217;28;20494;-59
2023/08/22 11:46:21;;;;;;;3.47;2.67;;;25.50;99.90;;;;;;5022362;28;20485;-59
2023/08/22 11:48:51;;;;;;;3.90;3.00;;;25.50;99.90;;;;;;5038398;28;21861;-61
2023/08/22 11:51:21;;;;;;;2.73;2.53;;;25.50;99.90;;;;;;5047112;28;20544;-63
2023/08/22 11:53:49;;;;;;;2.73;2.57;;;25.40;99.90;;;;;;5033829;28;20486;-62
2023/08/22 11:56:19;;;;;;;3.13;2.77;;;25.50;99.90;;;;;;5027641;28;20486;-64
2023/08/22 11:58:53;;;;;;;6.00;3.10;;;25.70;99.90;;;;;;5042371;28;20546;-64
2023/08/22 12:01:23;;;;;;;3.07;2.20;;;25.90;99.90;;;;;;5040841;28;20987;-62
2023/08/22 12:03:56;;;;;;;2.27;2.00;;;26.00;99.90;;;;;;5036259;28;20830;-60
2023/08/22 12:06:24;;;;;;;4.00;2.60;;;25.90;99.90;;;;;;5046523;28;20593;-59
2023/08/22 12:08:56;;;;;;;2.93;2.00;;;25.80;99.90;;;;;;5035065;28;20548;-60
2023/08/22 12:11:26;;;;;;;5.70;2.00;;;25.70;99.90;;;;;;5044283;28;20489;-60
2023/08/22 12:13:55;;;;;;;2.03;1.90;;;25.80;99.90;;;;;;5041147;28;21044;-60
2023/08/22 12:16:23;;;;;;;2.50;2.30;;;25.90;99.90;;;;;;5037618;28;20484;-61
2023/08/22 12:18:51;;;;;;;2.23;2.00;;;26.10;99.90;;;;;;5040350;28;20471;-60
2023/08/22 12:21:19;;;;;;;2.27;1.80;;;26.30;99.90;;;;;;5045798;28;20727;-62
2023/08/22 12:23:49;;;;;;;2.17;1.97;;;26.40;99.90;;;;;;5040158;28;20525;-60
2023/08/22 12:26:17;;;;;;;2.30;1.80;;;26.40;99.90;;;;;;5030436;28;21043;-59
2023/08/22 12:28:45;;;;;;;3.30;1.90;;;26.40;99.90;;;;;;5043157;28;21007;-58
2023/08/22 12:31:14;;;;;;;2.10;1.90;;;26.60;99.90;;;;;;5044382;28;21015;-59
2023/08/22 12:33:42;;;;;;;2.80;1.80;;;26.80;99.90;;;;;;5026438;28;20491;-58
2023/08/22 12:36:10;;;;;;;3.63;2.00;;;27.10;99.90;;;;;;5038400;28;20491;-57
2023/08/22 12:38:38;;;;;;;2.60;2.00;;;27.20;99.90;;;;;;5041404;28;20708;-58
2023/08/22 12:41:07;;;;;;;3.33;2.40;;;27.40;99.90;;;;;;5039139;28;20561;-57
2023/08/22 12:43:35;;;;;;;1.80;1.70;;;27.50;99.90;;;;;;5038582;28;20493;-59
2023/08/22 12:46:03;;;;;;;3.90;1.90;;;27.60;99.90;;;;;;5042369;28;20496;-58
2023/08/22 12:48:35;;;;;;;4.00;2.30;;;27.80;99.90;;;;;;5040102;28;20478;-58
2023/08/22 12:51:03;;;;;;;5.17;2.00;;;27.90;99.90;;;;;;5035148;28;20607;-59
2023/08/22 12:53:32;;;;;;;2.23;1.97;;;28.00;99.90;;;;;;5032238;28;20906;-56
2023/08/22 12:56:00;;;;;;;3.40;2.40;;;28.10;99.90;;;;;;5042432;28;20506;-58
2023/08/22 12:58:28;;;;;;;2.10;2.00;;;28.30;99.90;;;;;;5029155;28;20585;-57